sensor_id;sensor_type;location;lat;lon;timestamp;P1;durP1;ratioP1;P2;durP2;ratioP2
29214;SDS011;16252;49.816;7.964;2024-03-08T00:00:01;22.50;;;12.43;;
29214;SDS011;16252;49.816;7.964;2024-03-08T00:02:37;20.95;;;12.27;;
29214;SDS011;16252;49.816;7.964;2024-03-08T00:05:04;17.77;;;11.35;;
29214;SDS011;16252;49.816;7.964;2024-03-08T00:07:30;19.40;;;12.57;;
29214;SDS011;16252;49.816;7.964;2024-03-08T00:09:55;22.77;;;12.85;;
29214;SDS011;16252;49.816;7.964;2024-03-08T00:12:20;21.50;;;12.10;;
29214;SDS011;16252;49.816;7.964;2024-03-08T00:14:46;19.33;;;11.93;;
29214;SDS011;16252;49.816;7.964;2024-03-08T00:17:11;24.25;;;13.18;;
29214;SDS011;16252;49.816;7.964;2024-03-08T00:19:36;24.08;;;12.90;;
29214;SDS011;16252;49.816;7.964;2024-03-08T00:22:01;20.20;;;12.93;;
29214;SDS011;16252;49.816;7.964;2024-03-08T00:24:27;19.70;;;12.05;;
29214;SDS011;16252;49.816;7.964;2024-03-08T00:26:53;22.05;;;13.27;;
29214;SDS011;16252;49.816;7.964;2024-03-08T00:29:19;21.00;;;12.57;;
29214;SDS011;16252;49.816;7.964;2024-03-08T00:31:44;24.83;;;13.70;;
29214;SDS011;16252;49.816;7.964;2024-03-08T00:34:10;22.75;;;13.10;;
29214;SDS011;16252;49.816;7.964;2024-03-08T00:36:36;21.85;;;13.10;;
29214;SDS011;16252;49.816;7.964;2024-03-08T00:39:02;22.63;;;12.55;;
29214;SDS011;16252;49.816;7.964;2024-03-08T00:41:29;22.00;;;13.18;;
29214;SDS011;16252;49.816;7.964;2024-03-08T00:43:54;21.17;;;12.70;;
29214;SDS011;16252;49.816;7.964;2024-03-08T00:46:19;22.88;;;12.88;;
29214;SDS011;16252;49.816;7.964;2024-03-08T00:48:44;19.30;;;13.05;;
29214;SDS011;16252;49.816;7.964;2024-03-08T00:51:09;19.63;;;12.07;;
29214;SDS011;16252;49.816;7.964;2024-03-08T00:53:35;20.63;;;13.73;;
29214;SDS011;16252;49.816;7.964;2024-03-08T00:56:00;20.77;;;12.88;;
29214;SDS011;16252;49.816;7.964;2024-03-08T00:58:25;21.98;;;12.75;;
29214;SDS011;16252;49.816;7.964;2024-03-08T01:00:50;24.63;;;14.38;;
29214;SDS011;16252;49.816;7.964;2024-03-08T01:03:16;21.85;;;12.80;;
29214;SDS011;16252;49.816;7.964;2024-03-08T01:05:41;19.48;;;12.57;;
29214;SDS011;16252;49.816;7.964;2024-03-08T01:08:06;20.10;;;12.95;;
29214;SDS011;16252;49.816;7.964;2024-03-08T01:10:32;20.55;;;13.57;;
29214;SDS011;16252;49.816;7.964;2024-03-08T01:12:58;20.23;;;13.25;;
29214;SDS011;16252;49.816;7.964;2024-03-08T01:15:24;21.52;;;12.68;;
29214;SDS011;16252;49.816;7.964;2024-03-08T01:17:49;21.75;;;12.63;;
29214;SDS011;16252;49.816;7.964;2024-03-08T01:20:15;21.63;;;12.63;;
29214;SDS011;16252;49.816;7.964;2024-03-08T01:22:40;24.90;;;13.60;;
29214;SDS011;16252;49.816;7.964;2024-03-08T01:25:06;21.33;;;13.00;;
29214;SDS011;16252;49.816;7.964;2024-03-08T01:27:33;23.02;;;13.48;;
29214;SDS011;16252;49.816;7.964;2024-03-08T01:30:00;22.20;;;13.25;;
29214;SDS011;16252;49.816;7.964;2024-03-08T01:32:25;21.88;;;13.40;;
29214;SDS011;16252;49.816;7.964;2024-03-08T01:34:50;22.77;;;13.40;;
29214;SDS011;16252;49.816;7.964;2024-03-08T01:37:16;21.58;;;12.98;;
29214;SDS011;16252;49.816;7.964;2024-03-08T01:39:41;21.90;;;13.48;;
29214;SDS011;16252;49.816;7.964;2024-03-08T01:42:06;21.95;;;13.07;;
29214;SDS011;16252;49.816;7.964;2024-03-08T01:44:32;19.25;;;12.38;;
29214;SDS011;16252;49.816;7.964;2024-03-08T01:46:57;21.55;;;13.40;;
29214;SDS011;16252;49.816;7.964;2024-03-08T01:49:23;23.92;;;13.20;;
29214;SDS011;16252;49.816;7.964;2024-03-08T01:51:50;20.55;;;12.40;;
29214;SDS011;16252;49.816;7.964;2024-03-08T01:54:16;22.15;;;12.25;;
29214;SDS011;16252;49.816;7.964;2024-03-08T01:56:44;22.50;;;13.95;;
29214;SDS011;16252;49.816;7.964;2024-03-08T01:59:10;20.98;;;13.85;;
29214;SDS011;16252;49.816;7.964;2024-03-08T02:01:35;24.70;;;14.20;;
29214;SDS011;16252;49.816;7.964;2024-03-08T02:04:01;21.35;;;13.35;;
29214;SDS011;16252;49.816;7.964;2024-03-08T02:06:26;18.58;;;12.30;;
29214;SDS011;16252;49.816;7.964;2024-03-08T02:08:52;21.80;;;12.73;;
29214;SDS011;16252;49.816;7.964;2024-03-08T02:11:18;21.65;;;12.68;;
29214;SDS011;16252;49.816;7.964;2024-03-08T02:13:45;19.67;;;13.27;;
29214;SDS011;16252;49.816;7.964;2024-03-08T02:16:10;20.10;;;12.70;;
29214;SDS011;16252;49.816;7.964;2024-03-08T02:18:36;22.83;;;12.15;;
29214;SDS011;16252;49.816;7.964;2024-03-08T02:21:04;19.42;;;12.68;;
29214;SDS011;16252;49.816;7.964;2024-03-08T02:23:31;19.98;;;13.45;;
29214;SDS011;16252;49.816;7.964;2024-03-08T02:25:57;18.27;;;11.57;;
29214;SDS011;16252;49.816;7.964;2024-03-08T02:28:22;20.70;;;13.05;;
29214;SDS011;16252;49.816;7.964;2024-03-08T02:30:50;20.85;;;12.55;;
29214;SDS011;16252;49.816;7.964;2024-03-08T02:33:16;23.90;;;13.48;;
29214;SDS011;16252;49.816;7.964;2024-03-08T02:35:43;19.92;;;12.88;;
29214;SDS011;16252;49.816;7.964;2024-03-08T02:38:15;21.58;;;13.48;;
29214;SDS011;16252;49.816;7.964;2024-03-08T02:40:42;20.45;;;13.70;;
29214;SDS011;16252;49.816;7.964;2024-03-08T02:43:11;17.73;;;11.60;;
29214;SDS011;16252;49.816;7.964;2024-03-08T02:45:38;19.52;;;11.75;;
29214;SDS011;16252;49.816;7.964;2024-03-08T02:48:03;19.33;;;12.30;;
29214;SDS011;16252;49.816;7.964;2024-03-08T02:50:31;20.38;;;12.52;;
29214;SDS011;16252;49.816;7.964;2024-03-08T02:52:56;21.08;;;12.07;;
29214;SDS011;16252;49.816;7.964;2024-03-08T02:55:22;20.83;;;12.75;;
29214;SDS011;16252;49.816;7.964;2024-03-08T02:57:47;22.45;;;13.07;;
29214;SDS011;16252;49.816;7.964;2024-03-08T03:00:12;20.48;;;11.73;;
29214;SDS011;16252;49.816;7.964;2024-03-08T03:02:38;19.30;;;12.20;;
29214;SDS011;16252;49.816;7.964;2024-03-08T03:05:04;20.85;;;12.48;;
29214;SDS011;16252;49.816;7.964;2024-03-08T03:07:34;19.75;;;12.80;;
29214;SDS011;16252;49.816;7.964;2024-03-08T03:09:59;20.20;;;12.48;;
29214;SDS011;16252;49.816;7.964;2024-03-08T03:12:26;20.73;;;12.23;;
29214;SDS011;16252;49.816;7.964;2024-03-08T03:14:54;20.58;;;12.77;;
29214;SDS011;16252;49.816;7.964;2024-03-08T03:17:21;20.55;;;13.20;;
29214;SDS011;16252;49.816;7.964;2024-03-08T03:19:47;21.67;;;13.40;;
29214;SDS011;16252;49.816;7.964;2024-03-08T03:22:12;19.50;;;12.52;;
29214;SDS011;16252;49.816;7.964;2024-03-08T03:24:38;20.80;;;12.70;;
29214;SDS011;16252;49.816;7.964;2024-03-08T03:27:03;19.63;;;12.20;;
29214;SDS011;16252;49.816;7.964;2024-03-08T03:29:35;19.42;;;11.73;;
29214;SDS011;16252;49.816;7.964;2024-03-08T03:32:13;17.60;;;11.25;;
29214;SDS011;16252;49.816;7.964;2024-03-08T03:34:39;20.23;;;12.60;;
29214;SDS011;16252;49.816;7.964;2024-03-08T03:37:05;20.20;;;12.80;;
29214;SDS011;16252;49.816;7.964;2024-03-08T03:39:33;22.50;;;13.15;;
29214;SDS011;16252;49.816;7.964;2024-03-08T03:42:15;20.48;;;11.93;;
29214;SDS011;16252;49.816;7.964;2024-03-08T03:44:41;22.13;;;13.48;;
29214;SDS011;16252;49.816;7.964;2024-03-08T03:47:09;20.75;;;12.85;;
29214;SDS011;16252;49.816;7.964;2024-03-08T03:49:34;19.92;;;12.35;;
29214;SDS011;16252;49.816;7.964;2024-03-08T03:51:59;20.58;;;12.98;;
29214;SDS011;16252;49.816;7.964;2024-03-08T03:54:25;22.90;;;13.30;;
29214;SDS011;16252;49.816;7.964;2024-03-08T03:56:50;23.27;;;13.50;;
29214;SDS011;16252;49.816;7.964;2024-03-08T03:59:18;19.52;;;12.50;;
29214;SDS011;16252;49.816;7.964;2024-03-08T04:01:43;21.55;;;13.63;;
29214;SDS011;16252;49.816;7.964;2024-03-08T04:04:09;21.40;;;12.15;;
29214;SDS011;16252;49.816;7.964;2024-03-08T04:06:34;20.80;;;12.45;;
29214;SDS011;16252;49.816;7.964;2024-03-08T04:08:59;20.95;;;12.40;;
29214;SDS011;16252;49.816;7.964;2024-03-08T04:11:25;21.20;;;12.98;;
29214;SDS011;16252;49.816;7.964;2024-03-08T04:13:50;21.50;;;13.10;;
29214;SDS011;16252;49.816;7.964;2024-03-08T04:16:15;22.33;;;13.10;;
29214;SDS011;16252;49.816;7.964;2024-03-08T04:18:40;24.35;;;12.95;;
29214;SDS011;16252;49.816;7.964;2024-03-08T04:21:06;24.70;;;13.10;;
29214;SDS011;16252;49.816;7.964;2024-03-08T04:23:34;20.75;;;12.25;;
29214;SDS011;16252;49.816;7.964;2024-03-08T04:26:02;23.83;;;12.63;;
29214;SDS011;16252;49.816;7.964;2024-03-08T04:28:30;22.63;;;13.02;;
29214;SDS011;16252;49.816;7.964;2024-03-08T04:30:56;21.17;;;12.88;;
29214;SDS011;16252;49.816;7.964;2024-03-08T04:33:21;20.88;;;11.88;;
29214;SDS011;16252;49.816;7.964;2024-03-08T04:35:48;26.02;;;13.27;;
29214;SDS011;16252;49.816;7.964;2024-03-08T04:38:13;20.50;;;12.45;;
29214;SDS011;16252;49.816;7.964;2024-03-08T04:40:38;21.00;;;12.45;;
29214;SDS011;16252;49.816;7.964;2024-03-08T04:43:04;22.52;;;13.07;;
29214;SDS011;16252;49.816;7.964;2024-03-08T04:45:30;21.30;;;12.80;;
29214;SDS011;16252;49.816;7.964;2024-03-08T04:47:55;22.30;;;12.68;;
29214;SDS011;16252;49.816;7.964;2024-03-08T04:50:20;23.80;;;13.50;;
29214;SDS011;16252;49.816;7.964;2024-03-08T04:52:45;21.77;;;13.07;;
29214;SDS011;16252;49.816;7.964;2024-03-08T04:55:11;19.90;;;11.70;;
29214;SDS011;16252;49.816;7.964;2024-03-08T04:57:37;20.50;;;12.70;;
29214;SDS011;16252;49.816;7.964;2024-03-08T05:00:02;19.50;;;12.02;;
29214;SDS011;16252;49.816;7.964;2024-03-08T05:02:32;20.98;;;12.13;;
29214;SDS011;16252;49.816;7.964;2024-03-08T05:04:57;20.88;;;12.75;;
29214;SDS011;16252;49.816;7.964;2024-03-08T05:07:23;21.05;;;12.98;;
29214;SDS011;16252;49.816;7.964;2024-03-08T05:09:49;21.48;;;12.15;;
29214;SDS011;16252;49.816;7.964;2024-03-08T05:12:17;20.67;;;12.73;;
29214;SDS011;16252;49.816;7.964;2024-03-08T05:14:43;18.95;;;11.98;;
29214;SDS011;16252;49.816;7.964;2024-03-08T05:17:10;19.40;;;11.80;;
29214;SDS011;16252;49.816;7.964;2024-03-08T05:19:35;22.65;;;11.88;;
29214;SDS011;16252;49.816;7.964;2024-03-08T05:22:01;18.88;;;12.18;;
29214;SDS011;16252;49.816;7.964;2024-03-08T05:24:26;23.90;;;13.32;;
29214;SDS011;16252;49.816;7.964;2024-03-08T05:26:51;22.10;;;11.98;;
29214;SDS011;16252;49.816;7.964;2024-03-08T05:29:17;21.10;;;13.07;;
29214;SDS011;16252;49.816;7.964;2024-03-08T05:31:50;22.45;;;13.18;;
29214;SDS011;16252;49.816;7.964;2024-03-08T05:34:17;21.98;;;12.73;;
29214;SDS011;16252;49.816;7.964;2024-03-08T05:36:44;26.17;;;14.07;;
29214;SDS011;16252;49.816;7.964;2024-03-08T05:39:11;17.92;;;11.68;;
29214;SDS011;16252;49.816;7.964;2024-03-08T05:41:39;24.02;;;12.98;;
29214;SDS011;16252;49.816;7.964;2024-03-08T05:44:05;25.85;;;13.02;;
29214;SDS011;16252;49.816;7.964;2024-03-08T05:46:30;24.67;;;13.60;;
29214;SDS011;16252;49.816;7.964;2024-03-08T05:48:56;19.13;;;11.68;;
29214;SDS011;16252;49.816;7.964;2024-03-08T05:51:23;21.77;;;12.52;;
29214;SDS011;16252;49.816;7.964;2024-03-08T05:53:49;22.75;;;12.25;;
29214;SDS011;16252;49.816;7.964;2024-03-08T05:56:14;21.42;;;12.98;;
29214;SDS011;16252;49.816;7.964;2024-03-08T05:58:39;22.10;;;12.88;;
29214;SDS011;16252;49.816;7.964;2024-03-08T06:01:05;20.60;;;12.18;;
29214;SDS011;16252;49.816;7.964;2024-03-08T06:03:32;22.92;;;12.75;;
29214;SDS011;16252;49.816;7.964;2024-03-08T06:05:58;21.33;;;12.75;;
29214;SDS011;16252;49.816;7.964;2024-03-08T06:08:24;22.80;;;12.85;;
29214;SDS011;16252;49.816;7.964;2024-03-08T06:10:54;23.85;;;13.43;;
29214;SDS011;16252;49.816;7.964;2024-03-08T06:13:20;22.58;;;13.98;;
29214;SDS011;16252;49.816;7.964;2024-03-08T06:15:45;21.98;;;12.85;;
29214;SDS011;16252;49.816;7.964;2024-03-08T06:18:10;21.95;;;12.30;;
29214;SDS011;16252;49.816;7.964;2024-03-08T06:20:36;23.27;;;12.60;;
29214;SDS011;16252;49.816;7.964;2024-03-08T06:23:02;23.02;;;13.43;;
29214;SDS011;16252;49.816;7.964;2024-03-08T06:25:27;25.38;;;12.80;;
29214;SDS011;16252;49.816;7.964;2024-03-08T06:27:52;23.75;;;13.00;;
29214;SDS011;16252;49.816;7.964;2024-03-08T06:30:18;23.05;;;12.98;;
29214;SDS011;16252;49.816;7.964;2024-03-08T06:32:43;25.27;;;13.05;;
29214;SDS011;16252;49.816;7.964;2024-03-08T06:35:08;26.02;;;14.52;;
29214;SDS011;16252;49.816;7.964;2024-03-08T06:37:35;22.38;;;13.70;;
29214;SDS011;16252;49.816;7.964;2024-03-08T06:40:01;25.48;;;13.57;;
29214;SDS011;16252;49.816;7.964;2024-03-08T06:42:28;25.48;;;15.48;;
29214;SDS011;16252;49.816;7.964;2024-03-08T06:44:54;26.33;;;15.63;;
29214;SDS011;16252;49.816;7.964;2024-03-08T06:47:22;27.67;;;14.75;;
29214;SDS011;16252;49.816;7.964;2024-03-08T06:49:50;31.13;;;16.20;;
29214;SDS011;16252;49.816;7.964;2024-03-08T06:52:16;25.30;;;15.13;;
29214;SDS011;16252;49.816;7.964;2024-03-08T06:54:42;27.58;;;14.57;;
29214;SDS011;16252;49.816;7.964;2024-03-08T06:57:07;27.75;;;15.38;;
29214;SDS011;16252;49.816;7.964;2024-03-08T06:59:33;26.08;;;16.02;;
29214;SDS011;16252;49.816;7.964;2024-03-08T07:02:00;24.33;;;14.30;;
29214;SDS011;16252;49.816;7.964;2024-03-08T07:04:25;30.95;;;14.98;;
29214;SDS011;16252;49.816;7.964;2024-03-08T07:06:54;25.08;;;14.32;;
29214;SDS011;16252;49.816;7.964;2024-03-08T07:09:20;28.52;;;15.85;;
29214;SDS011;16252;49.816;7.964;2024-03-08T07:11:45;27.33;;;15.95;;
29214;SDS011;16252;49.816;7.964;2024-03-08T07:14:11;26.50;;;15.82;;
29214;SDS011;16252;49.816;7.964;2024-03-08T07:16:37;27.05;;;15.35;;
29214;SDS011;16252;49.816;7.964;2024-03-08T07:19:03;25.95;;;14.82;;
29214;SDS011;16252;49.816;7.964;2024-03-08T07:21:30;27.77;;;15.82;;
29214;SDS011;16252;49.816;7.964;2024-03-08T07:23:55;27.77;;;15.50;;
29214;SDS011;16252;49.816;7.964;2024-03-08T07:26:26;26.23;;;15.55;;
29214;SDS011;16252;49.816;7.964;2024-03-08T07:28:52;31.58;;;17.65;;
29214;SDS011;16252;49.816;7.964;2024-03-08T07:31:20;28.92;;;17.38;;
29214;SDS011;16252;49.816;7.964;2024-03-08T07:36:25;26.38;;;15.60;;
29214;SDS011;16252;49.816;7.964;2024-03-08T07:38:50;26.95;;;15.10;;
29214;SDS011;16252;49.816;7.964;2024-03-08T07:41:15;30.65;;;15.45;;
29214;SDS011;16252;49.816;7.964;2024-03-08T07:43:41;23.55;;;15.07;;
29214;SDS011;16252;49.816;7.964;2024-03-08T07:46:07;25.02;;;15.20;;
29214;SDS011;16252;49.816;7.964;2024-03-08T07:48:35;26.15;;;16.15;;
29214;SDS011;16252;49.816;7.964;2024-03-08T07:51:01;30.83;;;17.00;;
29214;SDS011;16252;49.816;7.964;2024-03-08T07:53:27;26.60;;;15.73;;
29214;SDS011;16252;49.816;7.964;2024-03-08T07:55:53;27.60;;;16.38;;
29214;SDS011;16252;49.816;7.964;2024-03-08T07:58:18;29.40;;;16.45;;
29214;SDS011;16252;49.816;7.964;2024-03-08T08:00:43;26.75;;;15.90;;
29214;SDS011;16252;49.816;7.964;2024-03-08T08:03:09;28.60;;;17.17;;
29214;SDS011;16252;49.816;7.964;2024-03-08T08:05:34;27.17;;;16.65;;
29214;SDS011;16252;49.816;7.964;2024-03-08T08:08:03;25.52;;;15.85;;
29214;SDS011;16252;49.816;7.964;2024-03-08T08:10:31;25.75;;;16.23;;
29214;SDS011;16252;49.816;7.964;2024-03-08T08:12:57;27.65;;;16.33;;
29214;SDS011;16252;49.816;7.964;2024-03-08T08:15:23;27.92;;;16.90;;
29214;SDS011;16252;49.816;7.964;2024-03-08T08:17:48;36.25;;;17.30;;
29214;SDS011;16252;49.816;7.964;2024-03-08T08:20:13;27.55;;;16.63;;
29214;SDS011;16252;49.816;7.964;2024-03-08T08:22:39;27.42;;;16.48;;
29214;SDS011;16252;49.816;7.964;2024-03-08T08:25:05;25.67;;;15.30;;
29214;SDS011;16252;49.816;7.964;2024-03-08T08:27:30;27.80;;;15.55;;
29214;SDS011;16252;49.816;7.964;2024-03-08T08:29:56;28.00;;;15.52;;
29214;SDS011;16252;49.816;7.964;2024-03-08T08:32:21;26.95;;;15.80;;
29214;SDS011;16252;49.816;7.964;2024-03-08T08:34:47;27.58;;;16.65;;
29214;SDS011;16252;49.816;7.964;2024-03-08T08:37:12;25.75;;;15.82;;
29214;SDS011;16252;49.816;7.964;2024-03-08T08:39:38;29.20;;;18.10;;
29214;SDS011;16252;49.816;7.964;2024-03-08T08:42:03;27.17;;;16.70;;
29214;SDS011;16252;49.816;7.964;2024-03-08T08:44:29;26.77;;;16.75;;
29214;SDS011;16252;49.816;7.964;2024-03-08T08:46:56;27.67;;;16.27;;
29214;SDS011;16252;49.816;7.964;2024-03-08T08:49:22;28.58;;;16.05;;
29214;SDS011;16252;49.816;7.964;2024-03-08T08:51:50;26.33;;;15.77;;
29214;SDS011;16252;49.816;7.964;2024-03-08T08:54:15;25.75;;;15.45;;
29214;SDS011;16252;49.816;7.964;2024-03-08T08:56:43;29.20;;;16.48;;
29214;SDS011;16252;49.816;7.964;2024-03-08T08:59:09;28.15;;;16.67;;
29214;SDS011;16252;49.816;7.964;2024-03-08T09:01:34;27.98;;;15.80;;
29214;SDS011;16252;49.816;7.964;2024-03-08T09:04:00;29.48;;;16.85;;
29214;SDS011;16252;49.816;7.964;2024-03-08T09:06:25;25.77;;;15.80;;
29214;SDS011;16252;49.816;7.964;2024-03-08T09:08:50;28.10;;;16.50;;
29214;SDS011;16252;49.816;7.964;2024-03-08T09:11:16;26.40;;;16.95;;
29214;SDS011;16252;49.816;7.964;2024-03-08T09:13:43;26.23;;;15.43;;
29214;SDS011;16252;49.816;7.964;2024-03-08T09:16:10;27.30;;;16.13;;
29214;SDS011;16252;49.816;7.964;2024-03-08T09:18:35;28.00;;;15.45;;
29214;SDS011;16252;49.816;7.964;2024-03-08T09:21:01;26.13;;;16.23;;
29214;SDS011;16252;49.816;7.964;2024-03-08T09:23:26;32.15;;;17.90;;
29214;SDS011;16252;49.816;7.964;2024-03-08T09:25:55;28.10;;;16.77;;
29214;SDS011;16252;49.816;7.964;2024-03-08T09:28:22;26.45;;;15.43;;
29214;SDS011;16252;49.816;7.964;2024-03-08T09:30:47;33.55;;;16.35;;
29214;SDS011;16252;49.816;7.964;2024-03-08T09:33:13;28.75;;;16.38;;
29214;SDS011;16252;49.816;7.964;2024-03-08T09:35:42;24.67;;;15.50;;
29214;SDS011;16252;49.816;7.964;2024-03-08T09:38:07;24.92;;;16.05;;
29214;SDS011;16252;49.816;7.964;2024-03-08T09:40:37;27.55;;;16.75;;
29214;SDS011;16252;49.816;7.964;2024-03-08T09:43:03;28.05;;;17.23;;
29214;SDS011;16252;49.816;7.964;2024-03-08T09:45:28;26.58;;;16.80;;
29214;SDS011;16252;49.816;7.964;2024-03-08T09:48:00;23.48;;;14.75;;
29214;SDS011;16252;49.816;7.964;2024-03-08T09:50:26;23.10;;;14.82;;
29214;SDS011;16252;49.816;7.964;2024-03-08T09:52:52;28.85;;;15.93;;
29214;SDS011;16252;49.816;7.964;2024-03-08T09:55:22;29.35;;;15.20;;
29214;SDS011;16252;49.816;7.964;2024-03-08T09:57:48;23.90;;;15.40;;
29214;SDS011;16252;49.816;7.964;2024-03-08T10:00:39;28.17;;;15.20;;
29214;SDS011;16252;49.816;7.964;2024-03-08T10:03:05;23.45;;;13.65;;
29214;SDS011;16252;49.816;7.964;2024-03-08T10:05:31;22.35;;;14.18;;
29214;SDS011;16252;49.816;7.964;2024-03-08T10:07:58;24.80;;;13.85;;
29214;SDS011;16252;49.816;7.964;2024-03-08T10:10:23;20.13;;;13.18;;
29214;SDS011;16252;49.816;7.964;2024-03-08T10:12:49;20.48;;;13.98;;
29214;SDS011;16252;49.816;7.964;2024-03-08T10:15:15;24.17;;;14.77;;
29214;SDS011;16252;49.816;7.964;2024-03-08T10:17:41;24.60;;;14.05;;
29214;SDS011;16252;49.816;7.964;2024-03-08T10:20:18;20.13;;;13.25;;
29214;SDS011;16252;49.816;7.964;2024-03-08T10:22:44;17.88;;;11.77;;
29214;SDS011;16252;49.816;7.964;2024-03-08T10:25:13;19.90;;;12.93;;
29214;SDS011;16252;49.816;7.964;2024-03-08T10:27:39;18.77;;;12.77;;
29214;SDS011;16252;49.816;7.964;2024-03-08T10:30:12;21.00;;;13.50;;
29214;SDS011;16252;49.816;7.964;2024-03-08T10:32:39;20.60;;;13.35;;
29214;SDS011;16252;49.816;7.964;2024-03-08T10:35:06;19.50;;;13.48;;
29214;SDS011;16252;49.816;7.964;2024-03-08T10:37:33;18.85;;;12.48;;
29214;SDS011;16252;49.816;7.964;2024-03-08T10:40:08;18.80;;;12.25;;
29214;SDS011;16252;49.816;7.964;2024-03-08T10:42:40;16.05;;;10.80;;
29214;SDS011;16252;49.816;7.964;2024-03-08T10:45:23;18.58;;;12.07;;
29214;SDS011;16252;49.816;7.964;2024-03-08T10:48:01;16.10;;;11.10;;
29214;SDS011;16252;49.816;7.964;2024-03-08T10:50:44;17.80;;;11.43;;
29214;SDS011;16252;49.816;7.964;2024-03-08T10:53:11;16.60;;;11.43;;
29214;SDS011;16252;49.816;7.964;2024-03-08T10:55:39;15.75;;;11.73;;
29214;SDS011;16252;49.816;7.964;2024-03-08T10:58:05;16.27;;;11.55;;
29214;SDS011;16252;49.816;7.964;2024-03-08T11:00:33;17.30;;;12.23;;
29214;SDS011;16252;49.816;7.964;2024-03-08T11:02:59;15.57;;;10.77;;
29214;SDS011;16252;49.816;7.964;2024-03-08T11:05:32;16.08;;;11.30;;
29214;SDS011;16252;49.816;7.964;2024-03-08T11:08:03;13.93;;;10.70;;
29214;SDS011;16252;49.816;7.964;2024-03-08T11:10:49;15.10;;;10.63;;
29214;SDS011;16252;49.816;7.964;2024-03-08T11:13:40;14.45;;;10.60;;
29214;SDS011;16252;49.816;7.964;2024-03-08T11:16:11;15.05;;;10.85;;
29214;SDS011;16252;49.816;7.964;2024-03-08T11:19:00;13.32;;;10.27;;
29214;SDS011;16252;49.816;7.964;2024-03-08T11:21:35;14.52;;;10.77;;
29214;SDS011;16252;49.816;7.964;2024-03-08T11:24:11;12.98;;;10.23;;
29214;SDS011;16252;49.816;7.964;2024-03-08T11:26:38;12.82;;;10.15;;
29214;SDS011;16252;49.816;7.964;2024-03-08T11:32:10;12.82;;;10.48;;
29214;SDS011;16252;49.816;7.964;2024-03-08T11:34:38;15.55;;;11.00;;
29214;SDS011;16252;49.816;7.964;2024-03-08T11:37:12;15.63;;;11.38;;
29214;SDS011;16252;49.816;7.964;2024-03-08T11:39:39;17.33;;;11.95;;
29214;SDS011;16252;49.816;7.964;2024-03-08T11:42:11;17.08;;;12.15;;
29214;SDS011;16252;49.816;7.964;2024-03-08T11:44:36;16.45;;;11.60;;
29214;SDS011;16252;49.816;7.964;2024-03-08T11:47:08;18.35;;;11.85;;
29214;SDS011;16252;49.816;7.964;2024-03-08T11:49:35;15.48;;;11.02;;
29214;SDS011;16252;49.816;7.964;2024-03-08T11:52:00;17.17;;;12.30;;
29214;SDS011;16252;49.816;7.964;2024-03-08T11:54:26;17.00;;;11.48;;
29214;SDS011;16252;49.816;7.964;2024-03-08T11:56:51;16.88;;;11.15;;
29214;SDS011;16252;49.816;7.964;2024-03-08T11:59:17;17.38;;;11.48;;
29214;SDS011;16252;49.816;7.964;2024-03-08T12:01:42;19.73;;;12.77;;
29214;SDS011;16252;49.816;7.964;2024-03-08T12:04:11;18.40;;;11.63;;
29214;SDS011;16252;49.816;7.964;2024-03-08T12:06:40;21.50;;;13.15;;
29214;SDS011;16252;49.816;7.964;2024-03-08T12:09:10;20.05;;;12.20;;
29214;SDS011;16252;49.816;7.964;2024-03-08T12:11:36;18.40;;;12.40;;
29214;SDS011;16252;49.816;7.964;2024-03-08T12:14:02;17.63;;;11.93;;
29214;SDS011;16252;49.816;7.964;2024-03-08T12:16:28;17.42;;;12.32;;
29214;SDS011;16252;49.816;7.964;2024-03-08T12:18:53;19.35;;;13.02;;
29214;SDS011;16252;49.816;7.964;2024-03-08T12:21:20;18.85;;;13.35;;
29214;SDS011;16252;49.816;7.964;2024-03-08T12:23:47;19.08;;;12.75;;
29214;SDS011;16252;49.816;7.964;2024-03-08T12:26:23;19.23;;;13.27;;
29214;SDS011;16252;49.816;7.964;2024-03-08T12:28:50;19.98;;;13.43;;
29214;SDS011;16252;49.816;7.964;2024-03-08T12:31:16;19.60;;;13.15;;
29214;SDS011;16252;49.816;7.964;2024-03-08T12:33:50;15.77;;;11.05;;
29214;SDS011;16252;49.816;7.964;2024-03-08T12:36:17;18.70;;;12.45;;
29214;SDS011;16252;49.816;7.964;2024-03-08T12:38:45;18.65;;;13.20;;
29214;SDS011;16252;49.816;7.964;2024-03-08T12:41:13;19.75;;;13.25;;
29214;SDS011;16252;49.816;7.964;2024-03-08T12:43:42;19.52;;;12.27;;
29214;SDS011;16252;49.816;7.964;2024-03-08T12:46:11;19.55;;;12.48;;
29214;SDS011;16252;49.816;7.964;2024-03-08T12:48:37;18.10;;;11.88;;
29214;SDS011;16252;49.816;7.964;2024-03-08T12:51:05;20.50;;;12.73;;
29214;SDS011;16252;49.816;7.964;2024-03-08T12:53:32;18.77;;;12.93;;
29214;SDS011;16252;49.816;7.964;2024-03-08T12:55:57;19.83;;;13.43;;
29214;SDS011;16252;49.816;7.964;2024-03-08T12:58:23;20.15;;;13.65;;
29214;SDS011;16252;49.816;7.964;2024-03-08T13:00:48;17.73;;;12.43;;
29214;SDS011;16252;49.816;7.964;2024-03-08T13:03:14;17.45;;;12.18;;
29214;SDS011;16252;49.816;7.964;2024-03-08T13:05:39;19.88;;;13.15;;
29214;SDS011;16252;49.816;7.964;2024-03-08T13:08:05;17.80;;;13.02;;
29214;SDS011;16252;49.816;7.964;2024-03-08T13:10:37;20.52;;;13.02;;
29214;SDS011;16252;49.816;7.964;2024-03-08T13:13:02;19.42;;;13.30;;
29214;SDS011;16252;49.816;7.964;2024-03-08T13:15:29;19.50;;;13.43;;
29214;SDS011;16252;49.816;7.964;2024-03-08T13:17:55;19.27;;;12.90;;
29214;SDS011;16252;49.816;7.964;2024-03-08T13:20:23;18.95;;;12.55;;
29214;SDS011;16252;49.816;7.964;2024-03-08T13:22:48;19.73;;;13.00;;
29214;SDS011;16252;49.816;7.964;2024-03-08T13:25:13;19.48;;;12.50;;
29214;SDS011;16252;49.816;7.964;2024-03-08T13:27:42;22.92;;;12.88;;
29214;SDS011;16252;49.816;7.964;2024-03-08T13:30:08;18.40;;;13.18;;
29214;SDS011;16252;49.816;7.964;2024-03-08T13:32:38;19.95;;;13.40;;
29214;SDS011;16252;49.816;7.964;2024-03-08T13:35:04;23.45;;;13.57;;
29214;SDS011;16252;49.816;7.964;2024-03-08T13:37:37;20.60;;;12.95;;
29214;SDS011;16252;49.816;7.964;2024-03-08T13:40:03;21.00;;;12.98;;
29214;SDS011;16252;49.816;7.964;2024-03-08T13:42:30;18.98;;;13.23;;
29214;SDS011;16252;49.816;7.964;2024-03-08T13:44:56;20.67;;;13.20;;
29214;SDS011;16252;49.816;7.964;2024-03-08T13:47:21;20.33;;;13.13;;
29214;SDS011;16252;49.816;7.964;2024-03-08T13:49:46;19.58;;;12.40;;
29214;SDS011;16252;49.816;7.964;2024-03-08T13:52:11;19.92;;;12.98;;
29214;SDS011;16252;49.816;7.964;2024-03-08T13:54:40;21.35;;;12.85;;
29214;SDS011;16252;49.816;7.964;2024-03-08T13:57:05;19.15;;;13.15;;
29214;SDS011;16252;49.816;7.964;2024-03-08T13:59:32;28.75;;;12.93;;
29214;SDS011;16252;49.816;7.964;2024-03-08T14:01:58;17.85;;;11.63;;
29214;SDS011;16252;49.816;7.964;2024-03-08T14:04:24;19.58;;;13.00;;
29214;SDS011;16252;49.816;7.964;2024-03-08T14:06:51;20.02;;;13.18;;
29214;SDS011;16252;49.816;7.964;2024-03-08T14:09:21;18.55;;;12.73;;
29214;SDS011;16252;49.816;7.964;2024-03-08T14:11:49;19.33;;;12.80;;
29214;SDS011;16252;49.816;7.964;2024-03-08T14:14:14;24.67;;;13.50;;
29214;SDS011;16252;49.816;7.964;2024-03-08T14:16:40;23.77;;;12.82;;
29214;SDS011;16252;49.816;7.964;2024-03-08T14:19:05;21.42;;;14.23;;
29214;SDS011;16252;49.816;7.964;2024-03-08T14:21:31;20.40;;;13.23;;
29214;SDS011;16252;49.816;7.964;2024-03-08T14:23:56;20.95;;;13.20;;